createdAt,value
2018-12-18T00:00:42.033Z,16.20
2018-12-18T00:03:09.570Z,15.97
2018-12-18T00:05:37.036Z,15.20
2018-12-18T00:08:04.596Z,16.80
2018-12-18T00:10:37.794Z,16.40
2018-12-18T00:13:05.408Z,16.07
2018-12-18T00:15:32.896Z,15.30
2018-12-18T00:18:00.360Z,16.00
2018-12-18T00:20:27.831Z,16.20
2018-12-18T00:22:55.286Z,14.80
2018-12-18T00:25:22.838Z,15.90
2018-12-18T00:27:50.306Z,16.10
2018-12-18T00:30:17.771Z,15.07
2018-12-18T00:32:45.241Z,17.30
2018-12-18T00:35:12.805Z,18.93
2018-12-18T00:37:40.274Z,16.27
2018-12-18T00:40:07.841Z,18.27
2018-12-18T00:42:35.355Z,17.00
2018-12-18T00:45:02.911Z,17.37
2018-12-18T00:47:30.378Z,17.40
2018-12-18T00:49:57.839Z,19.57
2018-12-18T00:52:25.357Z,19.13
2018-12-18T00:54:52.815Z,19.70
2018-12-18T00:57:20.282Z,18.67
2018-12-18T00:59:47.738Z,16.73
2018-12-18T01:02:15.219Z,18.00
2018-12-18T01:04:42.687Z,19.27
2018-12-18T01:07:10.155Z,20.33
2018-12-18T01:09:37.619Z,19.63
2018-12-18T01:12:05.099Z,18.30
2018-12-18T01:14:32.566Z,17.17
2018-12-18T01:17:00.044Z,17.20
2018-12-18T01:19:27.506Z,18.03
2018-12-18T01:21:55.003Z,17.27
2018-12-18T01:24:22.472Z,17.40
2018-12-18T01:26:50.169Z,16.80
2018-12-18T01:29:17.631Z,17.27
2018-12-18T01:31:45.106Z,16.43
2018-12-18T01:34:12.579Z,20.20
2018-12-18T01:36:40.074Z,19.67
2018-12-18T01:39:07.551Z,18.93
2018-12-18T01:41:35.155Z,20.60
2018-12-18T01:44:02.680Z,20.10
2018-12-18T01:46:30.145Z,18.70
2018-12-18T01:48:57.611Z,20.97
2018-12-18T01:51:25.079Z,18.93
2018-12-18T01:53:52.596Z,21.50
2018-12-18T01:56:20.095Z,21.30
2018-12-18T01:58:47.583Z,21.10
2018-12-18T02:01:15.104Z,19.93
2018-12-18T02:03:42.568Z,20.40
2018-12-18T02:06:10.071Z,19.73
2018-12-18T02:08:37.554Z,18.20
2018-12-18T02:11:05.109Z,19.70
2018-12-18T02:13:32.580Z,19.47
2018-12-18T02:16:00.049Z,21.40
2018-12-18T02:18:27.522Z,17.90
2018-12-18T02:20:54.978Z,17.40
2018-12-18T02:23:22.454Z,17.97
2018-12-18T02:25:49.915Z,17.70
2018-12-18T02:28:17.380Z,16.27
2018-12-18T02:30:44.863Z,16.70
2018-12-18T02:33:12.339Z,18.07
2018-12-18T02:35:39.815Z,18.40
2018-12-18T02:38:07.328Z,16.50
2018-12-18T02:40:34.795Z,16.07
2018-12-18T02:43:02.260Z,18.20
2018-12-18T02:45:29.819Z,18.90
2018-12-18T02:47:57.287Z,18.50
2018-12-18T02:50:24.751Z,18.37
2018-12-18T02:52:52.234Z,18.30
2018-12-18T02:55:19.741Z,17.50
2018-12-18T02:57:47.242Z,19.83
2018-12-18T03:00:14.755Z,19.67
2018-12-18T03:02:42.213Z,20.00
2018-12-18T03:05:09.726Z,19.90
2018-12-18T03:07:37.189Z,19.63
2018-12-18T03:10:05.336Z,20.60
2018-12-18T03:12:32.832Z,18.53
2018-12-18T03:15:00.299Z,20.93
2018-12-18T03:17:27.810Z,20.90
2018-12-18T03:19:55.276Z,19.03
2018-12-18T03:22:22.748Z,19.87
2018-12-18T03:24:50.202Z,19.30
2018-12-18T03:27:17.663Z,17.53
2018-12-18T03:29:45.129Z,18.83
2018-12-18T03:32:13.228Z,17.70
2018-12-18T03:34:40.839Z,17.57
2018-12-18T03:37:08.303Z,21.57
2018-12-18T03:39:35.913Z,18.57
2018-12-18T03:42:03.432Z,16.87
2018-12-18T03:44:31.007Z,20.60
2018-12-18T03:46:58.521Z,19.47
2018-12-18T03:49:25.975Z,22.57
2018-12-18T03:51:53.447Z,21.13
2018-12-18T03:54:21.062Z,19.90
2018-12-18T03:56:48.566Z,20.27
2018-12-18T03:59:16.134Z,21.03
2018-12-18T04:01:43.698Z,20.40
2018-12-18T04:04:11.160Z,19.97
2018-12-18T04:06:38.641Z,20.37
2018-12-18T04:09:06.260Z,20.07
2018-12-18T04:11:35.698Z,22.20
2018-12-18T04:14:03.177Z,19.90
2018-12-18T04:16:30.655Z,20.77
2018-12-18T04:18:58.325Z,20.57
2018-12-18T04:21:25.803Z,19.50
2018-12-18T04:23:53.284Z,20.30
2018-12-18T04:26:20.753Z,18.90
2018-12-18T04:28:48.305Z,19.27
2018-12-18T04:31:15.779Z,19.67
2018-12-18T04:33:43.235Z,17.63
2018-12-18T04:36:10.704Z,20.40
2018-12-18T04:38:38.172Z,20.40
2018-12-18T04:41:05.641Z,18.37
2018-12-18T04:43:33.118Z,20.37
2018-12-18T04:46:00.577Z,21.30
2018-12-18T04:48:28.043Z,21.13
2018-12-18T04:50:55.509Z,20.40
2018-12-18T04:53:23.018Z,19.60
2018-12-18T04:55:50.483Z,23.40
2018-12-18T04:58:17.999Z,22.80
2018-12-18T05:00:45.526Z,20.53
2018-12-18T05:03:12.987Z,20.37
2018-12-18T05:05:40.478Z,25.30
2018-12-18T05:08:07.937Z,29.70
2018-12-18T05:10:35.467Z,24.50
2018-12-18T05:13:02.964Z,23.53
2018-12-18T05:15:30.486Z,29.27
2018-12-18T05:17:58.058Z,25.73
2018-12-18T05:20:25.518Z,24.67
2018-12-18T05:22:52.989Z,25.10
2018-12-18T05:25:20.450Z,24.20
2018-12-18T05:27:47.986Z,24.93
2018-12-18T05:30:15.471Z,23.10
2018-12-18T05:32:42.937Z,22.40
2018-12-18T05:35:10.399Z,24.03
2018-12-18T05:37:37.864Z,22.37
2018-12-18T05:40:05.672Z,26.13
2018-12-18T05:42:33.261Z,24.47
2018-12-18T05:45:00.723Z,24.70
2018-12-18T05:47:28.192Z,22.50
2018-12-18T05:49:55.671Z,24.23
2018-12-18T05:52:23.137Z,24.70
2018-12-18T05:54:50.628Z,23.20
2018-12-18T05:57:18.126Z,24.47
2018-12-18T05:59:45.588Z,24.00
2018-12-18T06:02:13.087Z,22.50
2018-12-18T06:04:40.546Z,23.67
2018-12-18T06:07:08.004Z,23.13
2018-12-18T06:09:35.464Z,24.20
2018-12-18T06:12:02.955Z,23.00
2018-12-18T06:14:30.409Z,22.27
2018-12-18T06:16:57.872Z,24.07
2018-12-18T06:19:25.337Z,26.53
2018-12-18T06:21:52.800Z,23.67
2018-12-18T06:24:20.287Z,24.03
2018-12-18T06:26:47.753Z,21.93
2018-12-18T06:29:15.223Z,20.83
2018-12-18T06:31:42.698Z,21.93
2018-12-18T06:34:10.154Z,22.10
2018-12-18T06:36:37.620Z,19.70
2018-12-18T06:39:06.242Z,19.47
2018-12-18T06:41:33.711Z,18.37
2018-12-18T06:44:01.210Z,21.17
2018-12-18T06:46:28.662Z,20.80
2018-12-18T06:48:56.163Z,23.47
2018-12-18T06:51:23.644Z,18.90
2018-12-18T06:53:51.109Z,22.03
2018-12-18T06:56:18.571Z,20.13
2018-12-18T06:58:46.030Z,20.07
2018-12-18T07:01:13.509Z,23.10
2018-12-18T07:03:40.965Z,21.10
2018-12-18T07:06:08.431Z,21.07
2018-12-18T07:08:35.894Z,18.90
2018-12-18T07:11:03.418Z,16.70
2018-12-18T07:13:30.891Z,16.57
2018-12-18T07:15:58.391Z,16.10
2018-12-18T07:18:25.850Z,16.57
2018-12-18T07:20:53.316Z,15.67
2018-12-18T07:23:20.791Z,16.67
2018-12-18T07:25:48.257Z,15.10
2018-12-18T07:28:15.728Z,18.57
2018-12-18T07:30:43.182Z,14.73
2018-12-18T07:33:10.683Z,14.60
2018-12-18T07:35:38.157Z,15.60
2018-12-18T07:38:05.626Z,14.93
2018-12-18T07:40:33.126Z,19.10
2018-12-18T07:43:00.594Z,14.57
2018-12-18T07:45:28.065Z,15.77
2018-12-18T07:47:55.530Z,16.63
2018-12-18T07:50:23.035Z,15.60
2018-12-18T07:52:50.496Z,15.40
2018-12-18T07:55:18.020Z,15.10
2018-12-18T07:57:45.494Z,15.10
2018-12-18T08:00:13.027Z,15.37
2018-12-18T08:02:40.489Z,13.30
2018-12-18T08:05:07.985Z,15.60
2018-12-18T08:07:35.447Z,18.40
2018-12-18T08:10:03.382Z,22.37
2018-12-18T08:12:30.839Z,22.17
2018-12-18T08:14:58.341Z,22.13
2018-12-18T08:17:25.803Z,24.03
2018-12-18T08:19:53.262Z,24.03
2018-12-18T08:22:20.787Z,23.20
2018-12-18T08:24:48.322Z,20.53
2018-12-18T08:27:15.795Z,22.53
2018-12-18T08:29:43.261Z,25.10
2018-12-18T08:32:10.763Z,25.53
2018-12-18T08:34:38.213Z,22.40
2018-12-18T08:37:05.751Z,22.57
2018-12-18T08:39:33.254Z,20.47
2018-12-18T08:42:00.741Z,19.70
2018-12-18T08:44:28.225Z,23.07
2018-12-18T08:46:55.697Z,21.57
2018-12-18T08:49:23.166Z,18.87
2018-12-18T08:51:50.632Z,19.20
2018-12-18T08:54:18.094Z,18.27
2018-12-18T08:56:45.570Z,19.90
2018-12-18T08:59:13.035Z,18.73
2018-12-18T09:01:40.519Z,21.40
2018-12-18T09:04:08.000Z,18.77
2018-12-18T09:06:35.495Z,18.80
2018-12-18T09:09:04.929Z,16.00
2018-12-18T09:11:32.403Z,13.53
2018-12-18T09:13:59.890Z,17.57
2018-12-18T09:16:32.975Z,20.13
2018-12-18T09:19:00.427Z,15.80
2018-12-18T09:21:27.951Z,16.40
2018-12-18T09:23:55.471Z,14.73
2018-12-18T09:26:22.935Z,15.50
2018-12-18T09:28:50.390Z,11.80
2018-12-18T09:31:17.903Z,12.50
2018-12-18T09:33:45.363Z,11.60
2018-12-18T09:36:12.820Z,9.67
2018-12-18T09:38:45.948Z,8.13
2018-12-18T09:41:19.115Z,8.53
2018-12-18T09:43:52.414Z,8.17
2018-12-18T09:46:19.863Z,7.20
2018-12-18T09:48:47.327Z,6.73
2018-12-18T09:51:14.813Z,8.07
2018-12-18T09:53:42.270Z,7.33
2018-12-18T09:56:09.730Z,6.63
2018-12-18T09:58:37.226Z,5.67
2018-12-18T10:01:04.751Z,7.10
2018-12-18T10:03:33.618Z,6.87
2018-12-18T10:06:01.374Z,6.77
2018-12-18T10:08:28.855Z,6.33
2018-12-18T10:10:56.303Z,6.37
2018-12-18T10:13:23.859Z,6.43
2018-12-18T10:15:51.359Z,7.03
2018-12-18T10:18:18.802Z,5.87
2018-12-18T10:20:46.315Z,7.37
2018-12-18T10:23:13.851Z,6.60
2018-12-18T10:25:41.312Z,4.57
2018-12-18T10:28:08.758Z,5.70
2018-12-18T10:30:36.226Z,4.30
2018-12-18T10:33:03.738Z,4.40
2018-12-18T10:35:36.513Z,5.13
2018-12-18T10:38:00.715Z,4.17
2018-12-18T10:40:28.183Z,4.30
2018-12-18T10:42:55.661Z,5.30
2018-12-18T10:45:23.236Z,4.53
2018-12-18T10:47:50.700Z,4.80
2018-12-18T10:50:18.241Z,4.90
2018-12-18T10:52:45.687Z,4.50
2018-12-18T10:55:13.150Z,3.40
2018-12-18T10:57:40.674Z,3.93
2018-12-18T11:00:11.726Z,3.07
2018-12-18T11:02:39.191Z,2.60
2018-12-18T11:05:06.696Z,3.00
2018-12-18T11:07:34.142Z,2.40
2018-12-18T11:10:01.601Z,2.57
2018-12-18T11:12:34.899Z,3.40
2018-12-18T11:15:02.427Z,3.73
2018-12-18T11:17:29.878Z,3.10
2018-12-18T11:19:57.337Z,3.10
2018-12-18T11:22:24.815Z,2.47
2018-12-18T11:24:52.287Z,2.83
2018-12-18T11:27:19.761Z,2.60
2018-12-18T11:29:47.231Z,2.93
2018-12-18T11:32:14.691Z,3.20
2018-12-18T11:34:42.150Z,3.43
2018-12-18T11:37:09.639Z,3.10
2018-12-18T11:39:37.178Z,3.57
2018-12-18T11:42:04.682Z,3.63
2018-12-18T11:44:32.144Z,2.90
2018-12-18T11:46:59.627Z,4.70
2018-12-18T11:49:27.078Z,3.60
2018-12-18T11:51:54.543Z,3.20
2018-12-18T11:54:22.195Z,3.50
2018-12-18T11:56:49.711Z,2.70
2018-12-18T11:59:17.226Z,2.30
2018-12-18T12:01:44.710Z,2.03
2018-12-18T12:04:12.160Z,2.33
2018-12-18T12:06:39.616Z,1.60
2018-12-18T12:09:07.142Z,1.97
2018-12-18T12:11:34.604Z,1.60
2018-12-18T12:14:02.182Z,1.87
2018-12-18T12:16:29.686Z,1.70
2018-12-18T12:18:57.210Z,1.60
2018-12-18T12:21:24.658Z,2.17
2018-12-18T12:23:52.114Z,2.17
2018-12-18T12:26:34.174Z,1.50
2018-12-18T12:29:01.662Z,1.80
2018-12-18T12:31:29.240Z,2.43
2018-12-18T12:33:56.734Z,2.47
2018-12-18T12:36:29.576Z,1.80
2018-12-18T12:38:53.671Z,2.90
2018-12-18T12:41:21.138Z,1.67
2018-12-18T12:43:48.596Z,2.13
2018-12-18T12:46:16.059Z,2.17
2018-12-18T12:48:49.273Z,2.23
2018-12-18T12:51:16.714Z,2.20
2018-12-18T12:53:44.179Z,2.57
2018-12-18T12:56:11.634Z,2.20
2018-12-18T12:58:39.199Z,2.57
2018-12-18T13:01:06.679Z,1.70
2018-12-18T13:03:34.152Z,2.17
2018-12-18T13:06:01.637Z,3.33
2018-12-18T13:08:29.144Z,1.67
2018-12-18T13:10:56.624Z,2.17
2018-12-18T13:13:24.091Z,1.93
2018-12-18T13:15:51.549Z,1.87
2018-12-18T13:18:19.002Z,1.53
2018-12-18T13:20:46.453Z,3.40
2018-12-18T13:23:13.916Z,2.53
2018-12-18T13:25:41.395Z,2.40
2018-12-18T13:28:08.880Z,1.90
2018-12-18T13:30:36.339Z,1.90
2018-12-18T13:33:03.811Z,2.87
2018-12-18T13:35:31.267Z,1.90
2018-12-18T13:37:58.731Z,1.73
2018-12-18T13:40:26.185Z,2.37
2018-12-18T13:42:53.638Z,2.50
2018-12-18T13:45:21.094Z,1.50
2018-12-18T13:47:48.537Z,1.87
2018-12-18T13:50:15.997Z,1.73
2018-12-18T13:52:43.497Z,2.00
2018-12-18T13:55:11.898Z,2.00
2018-12-18T13:57:39.359Z,2.80
2018-12-18T14:00:07.082Z,1.67
2018-12-18T14:02:34.590Z,2.20
2018-12-18T14:05:02.082Z,2.30
2018-12-18T14:07:29.562Z,2.17
2018-12-18T14:09:57.254Z,1.70
2018-12-18T14:12:24.701Z,2.03
2018-12-18T14:14:53.161Z,2.30
2018-12-18T14:17:20.630Z,2.20
2018-12-18T14:19:48.086Z,2.00
2018-12-18T14:22:15.570Z,2.57
2018-12-18T14:24:43.037Z,2.87
2018-12-18T14:27:10.481Z,3.40
2018-12-18T14:29:37.939Z,3.13
2018-12-18T14:32:05.404Z,3.57
2018-12-18T14:34:32.857Z,4.03
2018-12-18T14:37:00.344Z,3.30
2018-12-18T14:39:27.814Z,3.53
2018-12-18T14:41:55.294Z,3.73
2018-12-18T14:44:22.757Z,3.53
2018-12-18T14:46:50.222Z,3.73
2018-12-18T14:49:17.675Z,4.40
2018-12-18T14:51:45.152Z,4.27
2018-12-18T14:54:12.857Z,5.30
2018-12-18T14:56:40.313Z,4.80
2018-12-18T14:59:07.765Z,3.73
2018-12-18T15:01:35.221Z,4.07
2018-12-18T15:04:02.748Z,3.60
2018-12-18T15:06:30.196Z,3.17
2018-12-18T15:08:57.655Z,3.83
2018-12-18T15:11:25.116Z,3.53
2018-12-18T15:13:52.579Z,5.17
2018-12-18T15:16:20.060Z,4.10
2018-12-18T15:18:47.524Z,3.80
2018-12-18T15:21:15.010Z,5.70
2018-12-18T15:23:42.498Z,5.00
2018-12-18T15:26:09.960Z,4.70
2018-12-18T15:28:37.422Z,6.50
2018-12-18T15:31:04.969Z,6.30
2018-12-18T15:33:32.601Z,7.00
2018-12-18T15:36:00.413Z,7.03
2018-12-18T15:38:27.871Z,5.90
2018-12-18T15:40:55.357Z,5.53
2018-12-18T15:43:22.847Z,5.37
2018-12-18T15:45:50.302Z,5.20
2018-12-18T15:48:17.778Z,5.30
2018-12-18T15:50:45.253Z,5.10
2018-12-18T15:53:12.718Z,5.17
2018-12-18T15:55:40.223Z,5.90
2018-12-18T15:58:07.737Z,23.53
2018-12-18T16:00:35.224Z,10.83
2018-12-18T16:03:02.727Z,14.60
2018-12-18T16:05:30.214Z,19.37
2018-12-18T16:07:57.680Z,13.57
2018-12-18T16:10:25.129Z,14.07
2018-12-18T16:12:52.600Z,10.93
2018-12-18T16:15:20.049Z,7.77
2018-12-18T16:17:47.506Z,7.70
2018-12-18T16:20:15.020Z,8.17
2018-12-18T16:22:42.496Z,7.30
2018-12-18T16:25:09.982Z,9.37
2018-12-18T16:27:37.475Z,10.50
2018-12-18T16:30:05.697Z,7.83
2018-12-18T16:32:33.146Z,7.43
2018-12-18T16:35:00.606Z,8.07
2018-12-18T16:37:28.066Z,10.27
2018-12-18T16:39:55.538Z,10.20
2018-12-18T16:42:22.995Z,8.97
2018-12-18T16:44:50.455Z,10.23
2018-12-18T16:47:17.942Z,8.67
2018-12-18T16:49:45.398Z,9.47
2018-12-18T16:52:12.868Z,7.23
2018-12-18T16:54:40.410Z,6.80
2018-12-18T16:57:13.216Z,7.00
2018-12-18T16:59:37.377Z,6.33
2018-12-18T17:02:04.847Z,5.47
2018-12-18T17:04:32.301Z,5.50
2018-12-18T17:06:59.756Z,7.00
2018-12-18T17:09:28.223Z,7.57
2018-12-18T17:11:55.675Z,6.33
2018-12-18T17:14:23.310Z,6.83
2018-12-18T17:16:50.767Z,8.53
2018-12-18T17:19:18.874Z,7.70
2018-12-18T17:21:46.604Z,8.03
2018-12-18T17:24:14.088Z,8.20
2018-12-18T17:26:41.571Z,8.80
2018-12-18T17:29:09.019Z,9.07
2018-12-18T17:31:36.536Z,8.80
2018-12-18T17:34:04.032Z,9.07
2018-12-18T17:36:31.494Z,13.33
2018-12-18T17:38:58.956Z,15.80
2018-12-18T17:41:26.432Z,11.57
2018-12-18T17:46:39.143Z,5.83
2018-12-18T17:49:06.595Z,5.70
2018-12-18T17:51:34.064Z,4.77
2018-12-18T17:54:01.523Z,10.23
2018-12-18T17:56:30.008Z,4.93
2018-12-18T17:58:57.467Z,5.40
2018-12-18T18:01:24.967Z,10.27
2018-12-18T18:03:52.426Z,11.70
2018-12-18T18:06:19.938Z,10.70
2018-12-18T18:08:47.415Z,8.00
2018-12-18T18:11:14.879Z,9.87
2018-12-18T18:13:42.378Z,13.17
2018-12-18T18:16:09.866Z,11.90
2018-12-18T18:18:37.356Z,12.30
2018-12-18T18:21:04.819Z,12.70
2018-12-18T18:23:32.292Z,16.50
2018-12-18T18:26:00.031Z,15.63
2018-12-18T18:28:27.483Z,17.13
2018-12-18T18:30:54.958Z,15.50
2018-12-18T18:33:22.423Z,17.13
2018-12-18T18:35:49.882Z,14.90
2018-12-18T18:38:17.363Z,15.63
2018-12-18T18:40:44.859Z,16.33
2018-12-18T18:43:12.339Z,17.87
2018-12-18T18:45:39.808Z,17.97
2018-12-18T18:48:07.270Z,14.20
2018-12-18T18:50:34.743Z,15.37
2018-12-18T18:53:02.198Z,18.27
2018-12-18T18:55:29.670Z,18.27
2018-12-18T18:57:57.131Z,15.13
2018-12-18T19:00:24.591Z,14.70
2018-12-18T19:02:52.068Z,17.80
2018-12-18T19:05:19.536Z,16.50
2018-12-18T19:07:47.007Z,13.97
2018-12-18T19:10:14.473Z,18.17
2018-12-18T19:12:41.941Z,17.43
2018-12-18T19:15:09.411Z,18.17
2018-12-18T19:17:36.901Z,16.13
2018-12-18T19:20:05.157Z,17.00
2018-12-18T19:22:32.641Z,18.03
2018-12-18T19:25:00.104Z,16.93
2018-12-18T19:27:27.575Z,17.77
2018-12-18T19:29:55.054Z,18.13
2018-12-18T19:32:22.520Z,12.57
2018-12-18T19:34:49.984Z,16.47
2018-12-18T19:37:17.465Z,16.30
2018-12-18T19:39:44.976Z,15.83
2018-12-18T19:42:12.605Z,18.43
2018-12-18T19:44:40.099Z,18.70
2018-12-18T19:47:07.564Z,13.50
2018-12-18T19:49:35.028Z,9.60
2018-12-18T19:52:02.496Z,15.70
2018-12-18T19:54:29.967Z,15.70
2018-12-18T19:56:57.465Z,18.60
2018-12-18T19:59:24.931Z,18.17
2018-12-18T20:01:52.397Z,12.47
2018-12-18T20:04:19.866Z,17.93
2018-12-18T20:06:47.358Z,15.00
2018-12-18T20:09:14.853Z,13.33
2018-12-18T20:11:42.351Z,20.27
2018-12-18T20:14:09.828Z,18.47
2018-12-18T20:16:37.314Z,16.80
2018-12-18T20:19:04.839Z,17.00
2018-12-18T20:21:32.298Z,16.10
2018-12-18T20:23:59.818Z,15.47
2018-12-18T20:26:27.317Z,16.77
2018-12-18T20:28:54.783Z,19.00
2018-12-18T20:31:22.249Z,18.17
2018-12-18T20:33:49.720Z,17.57
2018-12-18T20:36:17.217Z,10.17
2018-12-18T20:38:44.720Z,18.87
2018-12-18T20:41:12.196Z,19.50
2018-12-18T20:43:39.677Z,18.00
2018-12-18T20:46:07.172Z,18.20
2018-12-18T20:48:34.639Z,18.10
2018-12-18T20:51:02.115Z,19.50
2018-12-18T20:53:30.261Z,19.47
2018-12-18T20:55:57.880Z,17.47
2018-12-18T20:58:25.346Z,16.90
2018-12-18T21:00:52.809Z,16.77
2018-12-18T21:03:20.270Z,18.77
2018-12-18T21:05:47.733Z,18.47
2018-12-18T21:08:15.194Z,18.60
2018-12-18T21:10:42.684Z,18.50
2018-12-18T21:13:29.312Z,19.03
2018-12-18T21:15:57.108Z,15.80
2018-12-18T21:18:24.603Z,18.50
2018-12-18T21:20:52.137Z,18.40
2018-12-18T21:23:19.722Z,13.47
2018-12-18T21:25:47.195Z,17.80
2018-12-18T21:28:14.656Z,18.77
2018-12-18T21:30:42.173Z,19.67
2018-12-18T21:33:09.712Z,19.03
2018-12-18T21:35:37.187Z,19.57
2018-12-18T21:38:04.649Z,19.30
2018-12-18T21:40:32.107Z,19.93
2018-12-18T21:42:59.575Z,20.07
2018-12-18T21:45:27.038Z,17.90
2018-12-18T21:47:54.503Z,19.80
2018-12-18T21:50:22.021Z,18.23
2018-12-18T21:52:49.500Z,20.93
2018-12-18T21:55:16.957Z,19.27
2018-12-18T21:57:44.432Z,19.60
2018-12-18T22:00:12.643Z,18.43
2018-12-18T22:02:40.287Z,18.87
2018-12-18T22:05:07.764Z,19.47
2018-12-18T22:07:35.224Z,18.07
2018-12-18T22:10:03.436Z,19.90
2018-12-18T22:12:30.910Z,22.23
2018-12-18T22:14:58.366Z,17.23
2018-12-18T22:17:25.831Z,21.00
2018-12-18T22:19:53.289Z,15.40
2018-12-18T22:22:20.744Z,19.47
2018-12-18T22:24:48.308Z,18.00
2018-12-18T22:27:15.762Z,19.23
2018-12-18T22:29:43.340Z,17.43
2018-12-18T22:32:10.811Z,8.10
2018-12-18T22:34:38.406Z,20.40
2018-12-18T22:37:05.862Z,16.43
2018-12-18T22:39:33.327Z,17.93
2018-12-18T22:42:00.786Z,18.33
2018-12-18T22:44:28.259Z,20.03
2018-12-18T22:46:55.720Z,17.53
2018-12-18T22:49:23.191Z,19.20
2018-12-18T22:51:50.714Z,19.50
2018-12-18T22:54:18.191Z,19.80
2018-12-18T22:56:45.651Z,18.50
2018-12-18T22:59:13.106Z,20.13
2018-12-18T23:01:44.742Z,19.30
2018-12-18T23:04:13.568Z,19.50
2018-12-18T23:06:41.037Z,17.47
2018-12-18T23:09:10.440Z,15.23
2018-12-18T23:11:37.932Z,18.87
2018-12-18T23:14:05.453Z,16.80
2018-12-18T23:16:32.959Z,21.70
2018-12-18T23:19:00.415Z,20.67
2018-12-18T23:21:27.908Z,21.87
2018-12-18T23:23:55.393Z,20.00
2018-12-18T23:26:22.867Z,20.87
2018-12-18T23:28:50.331Z,20.60
2018-12-18T23:31:17.794Z,22.00
2018-12-18T23:33:45.258Z,20.07
2018-12-18T23:36:12.730Z,21.53
2018-12-18T23:38:40.184Z,20.37
2018-12-18T23:41:07.650Z,18.53
2018-12-18T23:43:35.115Z,20.30
2018-12-18T23:46:02.619Z,19.23
2018-12-18T23:48:30.211Z,21.27
2018-12-18T23:50:57.679Z,22.20
2018-12-18T23:53:25.171Z,19.60
2018-12-18T23:55:52.634Z,20.70
2018-12-18T23:58:20.103Z,17.40
